createdAt,value
2018-12-30T00:00:02.825Z,5.40
2018-12-30T00:02:32.189Z,5.50
2018-12-30T00:05:12.982Z,5.40
2018-12-30T00:07:53.082Z,5.30
2018-12-30T00:10:33.426Z,5.10
2018-12-30T00:13:01.144Z,5.30
2018-12-30T00:15:49.767Z,5.20
2018-12-30T00:18:36.985Z,5.10
2018-12-30T00:21:17.117Z,5.10
2018-12-30T00:23:57.345Z,5.20
2018-12-30T00:26:37.576Z,5.20
2018-12-30T00:29:17.944Z,5.20
2018-12-30T00:31:45.447Z,5.30
2018-12-30T00:34:34.405Z,5.30
2018-12-30T00:37:16.118Z,5.30
2018-12-30T00:39:56.184Z,5.30
2018-12-30T00:42:36.715Z,5.20
2018-12-30T00:45:17.105Z,5.30
2018-12-30T00:47:57.408Z,5.50
2018-12-30T00:50:25.119Z,5.30
2018-12-30T00:53:34.027Z,5.40
2018-12-30T00:56:21.013Z,5.40
2018-12-30T00:59:01.581Z,5.40
2018-12-30T01:01:41.984Z,5.50
2018-12-30T01:04:23.132Z,5.40
2018-12-30T01:07:03.783Z,5.40
2018-12-30T01:09:43.642Z,5.50
2018-12-30T01:12:24.128Z,5.50
2018-12-30T01:15:04.414Z,5.30
2018-12-30T01:17:31.912Z,5.50
2018-12-30T01:20:19.056Z,5.50
2018-12-30T01:22:46.487Z,5.50
2018-12-30T01:25:33.680Z,5.50
2018-12-30T01:28:14.448Z,5.60
2018-12-30T01:30:54.372Z,5.50
2018-12-30T01:33:34.912Z,5.30
2018-12-30T01:36:16.758Z,5.40
2018-12-30T01:38:56.919Z,5.40
2018-12-30T01:41:37.071Z,5.40
2018-12-30T01:44:04.685Z,5.30
2018-12-30T01:46:51.875Z,5.40
2018-12-30T01:49:32.465Z,5.40
2018-12-30T01:52:12.547Z,5.40
2018-12-30T01:54:52.982Z,5.40
2018-12-30T01:57:33.311Z,5.40
2018-12-30T02:00:13.627Z,5.40
2018-12-30T02:02:40.979Z,5.60
2018-12-30T02:05:21.808Z,5.40
2018-12-30T02:08:02.141Z,5.30
2018-12-30T02:10:42.786Z,5.40
2018-12-30T02:13:23.027Z,5.40
2018-12-30T02:16:03.222Z,5.50
2018-12-30T02:18:44.072Z,5.30
2018-12-30T02:21:24.685Z,5.50
2018-12-30T02:24:11.812Z,5.40
2018-12-30T02:26:52.518Z,5.50
2018-12-30T02:29:32.925Z,5.40
2018-12-30T02:32:13.123Z,5.40
2018-12-30T02:34:53.470Z,5.50
2018-12-30T02:37:33.754Z,5.40
2018-12-30T02:40:14.003Z,5.40
2018-12-30T02:42:54.255Z,5.50
2018-12-30T02:45:34.478Z,5.40
2018-12-30T02:48:14.962Z,5.40
2018-12-30T02:50:55.586Z,5.40
2018-12-30T02:53:35.698Z,5.40
2018-12-30T02:56:16.033Z,5.30
2018-12-30T02:58:56.568Z,5.20
2018-12-30T03:01:37.391Z,5.30
2018-12-30T03:04:17.436Z,5.30
2018-12-30T03:06:58.487Z,5.20
2018-12-30T03:09:26.162Z,5.10
2018-12-30T03:12:07.073Z,5.30
2018-12-30T03:14:47.254Z,5.20
2018-12-30T03:17:27.511Z,5.10
2018-12-30T03:20:07.909Z,5.00
2018-12-30T03:22:48.261Z,4.90
2018-12-30T03:25:28.340Z,4.80
2018-12-30T03:28:08.545Z,4.70
2018-12-30T03:30:48.752Z,4.70
2018-12-30T03:33:29.072Z,4.70
2018-12-30T03:36:09.422Z,4.50
2018-12-30T03:38:49.676Z,4.50
2018-12-30T03:41:29.787Z,4.30
2018-12-30T03:44:09.843Z,4.50
2018-12-30T03:46:50.249Z,4.50
2018-12-30T03:49:30.456Z,4.60
2018-12-30T03:52:11.290Z,4.60
2018-12-30T03:54:58.450Z,4.70
2018-12-30T03:57:38.516Z,4.60
2018-12-30T04:00:18.764Z,4.70
2018-12-30T04:02:59.112Z,4.70
2018-12-30T04:05:39.172Z,4.70
2018-12-30T04:08:19.289Z,4.80
2018-12-30T04:10:59.231Z,4.80
2018-12-30T04:13:39.933Z,4.60
2018-12-30T04:16:07.457Z,4.80
2018-12-30T04:18:35.000Z,4.70
2018-12-30T04:21:22.146Z,4.80
2018-12-30T04:24:02.531Z,4.80
2018-12-30T04:26:42.915Z,5.00
2018-12-30T04:29:22.911Z,4.70
2018-12-30T04:32:03.166Z,4.90
2018-12-30T04:34:30.665Z,4.70
2018-12-30T04:37:17.671Z,4.80
2018-12-30T04:39:58.317Z,5.10
2018-12-30T04:42:40.281Z,5.00
2018-12-30T04:45:20.555Z,4.90
2018-12-30T04:48:00.883Z,4.90
2018-12-30T04:50:41.119Z,4.90
2018-12-30T04:53:08.579Z,5.00
2018-12-30T04:55:55.559Z,5.00
2018-12-30T04:58:36.059Z,5.00
2018-12-30T05:01:16.738Z,5.00
2018-12-30T05:03:56.583Z,5.00
2018-12-30T05:06:37.085Z,4.90
2018-12-30T05:09:06.495Z,5.00
2018-12-30T05:11:46.553Z,5.00
2018-12-30T05:14:26.733Z,5.00
2018-12-30T05:17:13.740Z,5.00
2018-12-30T05:19:54.834Z,5.10
2018-12-30T05:22:41.869Z,4.90
2018-12-30T05:25:09.345Z,4.90
2018-12-30T05:27:56.338Z,4.90
2018-12-30T05:30:36.564Z,4.90
2018-12-30T05:33:17.089Z,4.90
2018-12-30T05:36:04.248Z,4.80
2018-12-30T05:38:51.564Z,4.80
2018-12-30T05:41:31.651Z,4.70
2018-12-30T05:44:11.567Z,4.70
2018-12-30T05:46:54.033Z,4.70
2018-12-30T05:49:21.420Z,4.80
2018-12-30T05:52:08.452Z,4.70
2018-12-30T05:54:48.729Z,4.70
2018-12-30T05:57:29.027Z,4.70
2018-12-30T06:00:09.470Z,4.70
2018-12-30T06:02:49.861Z,4.60
2018-12-30T06:05:30.217Z,4.70
2018-12-30T06:08:17.462Z,4.60
2018-12-30T06:10:57.817Z,4.70
2018-12-30T06:13:38.482Z,4.70
2018-12-30T06:16:18.271Z,4.60
2018-12-30T06:18:58.745Z,4.70
2018-12-30T06:21:38.998Z,4.70
2018-12-30T06:24:19.533Z,4.70
2018-12-30T06:26:59.562Z,4.70
2018-12-30T06:29:40.080Z,4.70
2018-12-30T06:32:20.255Z,4.70
2018-12-30T06:35:00.578Z,4.80
2018-12-30T06:37:40.847Z,4.80
2018-12-30T06:40:21.180Z,4.70
2018-12-30T06:43:01.805Z,4.80
2018-12-30T06:45:48.933Z,4.90
2018-12-30T06:48:29.088Z,4.80
2018-12-30T06:50:56.488Z,4.90
2018-12-30T06:53:36.684Z,5.00
2018-12-30T06:56:23.691Z,4.90
2018-12-30T06:59:04.212Z,5.10
2018-12-30T07:01:32.578Z,4.80
2018-12-30T07:04:14.031Z,5.00
2018-12-30T07:06:54.269Z,5.00
2018-12-30T07:09:34.477Z,4.90
2018-12-30T07:12:01.973Z,4.90
2018-12-30T07:14:29.561Z,5.00
2018-12-30T07:16:56.994Z,5.00
2018-12-30T07:19:24.381Z,5.00
2018-12-30T07:22:04.832Z,5.00
2018-12-30T07:24:45.124Z,4.90
2018-12-30T07:27:12.642Z,5.10
2018-12-30T07:29:40.193Z,5.00
2018-12-30T07:32:07.587Z,5.10
2018-12-30T07:34:34.921Z,5.10
2018-12-30T07:37:02.285Z,5.10
2018-12-30T07:39:29.672Z,5.20
2018-12-30T07:41:57.063Z,5.20
2018-12-30T07:44:24.781Z,5.30
2018-12-30T07:47:05.525Z,5.30
2018-12-30T07:49:52.788Z,5.20
2018-12-30T07:52:32.830Z,5.40
2018-12-30T07:55:13.216Z,5.50
2018-12-30T07:57:40.867Z,5.60
2018-12-30T08:00:28.024Z,5.70
2018-12-30T08:03:11.856Z,5.80
2018-12-30T08:05:51.721Z,5.80
2018-12-30T08:08:32.985Z,5.90
2018-12-30T08:11:13.897Z,6.10
2018-12-30T08:13:43.096Z,6.00
2018-12-30T08:19:17.357Z,6.10
2018-12-30T08:21:58.212Z,6.30
2018-12-30T08:24:38.713Z,6.30
2018-12-30T08:27:19.084Z,6.30
2018-12-30T08:30:06.374Z,6.30
2018-12-30T08:32:48.768Z,6.30
2018-12-30T08:35:32.967Z,6.40
2018-12-30T08:38:13.175Z,6.30
2018-12-30T08:40:40.530Z,6.50
2018-12-30T08:43:20.647Z,6.60
2018-12-30T08:46:01.087Z,6.60
2018-12-30T08:48:41.167Z,6.70
2018-12-30T08:51:23.489Z,6.80
2018-12-30T08:54:05.037Z,6.90
2018-12-30T08:56:47.716Z,7.10
2018-12-30T08:59:32.751Z,7.30
2018-12-30T09:02:15.322Z,7.30
2018-12-30T09:04:57.737Z,7.50
2018-12-30T09:07:39.291Z,7.40
2018-12-30T09:10:10.531Z,7.60
2018-12-30T09:12:51.321Z,7.60
2018-12-30T09:15:32.368Z,7.60
2018-12-30T09:18:12.588Z,7.50
2018-12-30T09:20:52.911Z,7.50
2018-12-30T09:23:37.286Z,7.40
2018-12-30T09:26:15.740Z,7.30
2018-12-30T09:28:55.662Z,7.40
2018-12-30T09:31:23.257Z,7.30
2018-12-30T09:34:03.972Z,7.30
2018-12-30T09:36:31.577Z,7.40
2018-12-30T09:39:06.887Z,7.20
2018-12-30T09:41:34.341Z,7.20
2018-12-30T09:44:14.906Z,7.20
2018-12-30T09:46:42.383Z,7.30
2018-12-30T09:49:09.736Z,7.20
2018-12-30T09:51:37.060Z,7.20
2018-12-30T09:54:24.248Z,7.20
2018-12-30T09:56:51.615Z,7.10
2018-12-30T09:59:38.711Z,7.10
2018-12-30T10:02:19.534Z,7.10
2018-12-30T10:05:00.937Z,7.20
2018-12-30T10:07:28.425Z,7.20
2018-12-30T10:09:55.870Z,7.10
2018-12-30T10:12:23.321Z,7.20
2018-12-30T10:15:10.462Z,7.30
2018-12-30T10:17:38.294Z,7.10
2018-12-30T10:20:19.368Z,7.30
2018-12-30T10:23:06.618Z,7.30
2018-12-30T10:25:46.682Z,7.40
2018-12-30T10:28:26.769Z,7.30
2018-12-30T10:31:13.774Z,7.20
2018-12-30T10:33:54.278Z,7.40
2018-12-30T10:36:35.901Z,7.30
2018-12-30T10:39:16.095Z,7.40
2018-12-30T10:41:57.273Z,7.20
2018-12-30T10:44:37.771Z,7.50
2018-12-30T10:47:05.208Z,7.70
2018-12-30T10:49:32.704Z,7.70
2018-12-30T10:52:00.704Z,7.70
2018-12-30T10:54:47.882Z,7.80
2018-12-30T10:57:15.256Z,7.90
2018-12-30T10:59:42.580Z,7.90
2018-12-30T11:02:22.504Z,7.80
2018-12-30T11:04:49.859Z,7.80
2018-12-30T11:07:29.997Z,7.60
2018-12-30T11:09:57.469Z,7.60
2018-12-30T11:12:37.635Z,7.50
2018-12-30T11:17:59.734Z,7.50
2018-12-30T11:20:40.210Z,7.50
2018-12-30T11:23:07.710Z,7.60
2018-12-30T11:25:54.863Z,7.70
2018-12-30T11:28:34.817Z,7.80
2018-12-30T11:31:21.829Z,7.80
2018-12-30T11:34:02.333Z,7.80
2018-12-30T11:36:42.362Z,7.60
2018-12-30T11:39:22.860Z,7.80
2018-12-30T11:42:04.999Z,8.10
2018-12-30T11:44:45.169Z,8.20
2018-12-30T11:47:12.578Z,8.20
2018-12-30T11:49:59.714Z,8.30
2018-12-30T11:52:27.075Z,8.50
2018-12-30T11:54:54.400Z,8.30
2018-12-30T11:57:21.844Z,8.30
2018-12-30T12:00:09.548Z,8.30
2018-12-30T12:02:36.904Z,8.30
2018-12-30T12:05:04.609Z,8.30
2018-12-30T12:07:53.621Z,8.10
2018-12-30T12:10:33.808Z,8.20
2018-12-30T12:13:14.008Z,8.10
2018-12-30T12:15:41.598Z,8.00
2018-12-30T12:18:21.756Z,8.10
2018-12-30T12:21:01.883Z,8.10
2018-12-30T12:23:29.534Z,8.10
2018-12-30T12:26:16.541Z,8.10
2018-12-30T12:28:56.435Z,8.30
2018-12-30T12:31:36.730Z,8.30
2018-12-30T12:34:04.277Z,8.50
2018-12-30T12:36:31.891Z,8.60
2018-12-30T12:38:59.269Z,8.70
2018-12-30T12:41:26.629Z,8.80
2018-12-30T12:44:07.358Z,8.80
2018-12-30T12:46:48.165Z,8.60
2018-12-30T12:49:28.379Z,8.70
2018-12-30T12:51:55.740Z,8.50
2018-12-30T12:54:23.285Z,8.40
2018-12-30T12:56:50.717Z,8.30
2018-12-30T12:59:18.314Z,8.30
2018-12-30T13:02:05.323Z,8.20
2018-12-30T13:04:45.833Z,8.10
2018-12-30T13:07:25.973Z,8.00
2018-12-30T13:10:07.240Z,7.90
2018-12-30T13:12:49.283Z,7.80
2018-12-30T13:15:31.329Z,7.60
2018-12-30T13:18:11.674Z,7.70
2018-12-30T13:20:52.054Z,7.50
2018-12-30T13:23:32.214Z,7.40
2018-12-30T13:26:12.588Z,7.40
2018-12-30T13:28:53.112Z,7.40
2018-12-30T13:31:20.600Z,7.40
2018-12-30T13:33:48.150Z,7.30
2018-12-30T13:36:28.140Z,7.20
2018-12-30T13:38:55.865Z,7.20
2018-12-30T13:41:42.980Z,7.10
2018-12-30T13:44:10.313Z,7.10
2018-12-30T13:46:59.307Z,7.00
2018-12-30T13:49:39.741Z,7.00
2018-12-30T13:52:07.241Z,6.90
2018-12-30T13:54:34.639Z,6.90
2018-12-30T13:57:15.425Z,6.90
2018-12-30T13:59:55.856Z,6.80
2018-12-30T14:02:23.292Z,6.90
2018-12-30T14:05:05.501Z,6.80
2018-12-30T14:07:45.712Z,6.70
2018-12-30T14:10:26.031Z,6.70
2018-12-30T14:12:53.694Z,6.90
2018-12-30T14:15:21.158Z,6.70
2018-12-30T14:17:48.504Z,6.60
2018-12-30T14:20:16.183Z,6.60
2018-12-30T14:23:03.509Z,6.60
2018-12-30T14:25:43.931Z,6.60
2018-12-30T14:28:31.185Z,6.60
2018-12-30T14:30:58.783Z,6.50
2018-12-30T14:36:19.823Z,6.50
2018-12-30T14:39:00.533Z,6.50
2018-12-30T14:41:40.571Z,6.30
2018-12-30T14:44:20.783Z,6.20
2018-12-30T14:46:48.173Z,6.30
2018-12-30T14:49:28.437Z,6.20
2018-12-30T14:51:55.800Z,6.20
2018-12-30T14:54:36.245Z,6.10
2018-12-30T14:57:03.851Z,6.20
2018-12-30T14:59:51.348Z,6.00
2018-12-30T15:02:31.898Z,6.00
2018-12-30T15:05:13.738Z,6.00
2018-12-30T15:07:53.757Z,6.00
2018-12-30T15:10:24.368Z,6.10
2018-12-30T15:13:12.437Z,5.90
2018-12-30T15:15:53.290Z,5.90
2018-12-30T15:18:40.297Z,5.80
2018-12-30T15:21:20.767Z,5.60
2018-12-30T15:23:48.432Z,5.70
2018-12-30T15:26:15.776Z,5.60
2018-12-30T15:28:55.692Z,5.50
2018-12-30T15:31:36.237Z,5.50
2018-12-30T15:34:16.482Z,5.40
2018-12-30T15:36:56.658Z,5.50
2018-12-30T15:39:36.920Z,5.40
2018-12-30T15:42:18.943Z,5.30
2018-12-30T15:45:01.067Z,5.20
2018-12-30T15:47:41.791Z,5.30
2018-12-30T15:50:09.316Z,5.10
2018-12-30T15:52:56.302Z,5.20
2018-12-30T15:55:37.324Z,5.20
2018-12-30T15:58:17.705Z,5.10
2018-12-30T16:00:57.730Z,4.90
2018-12-30T16:03:38.407Z,5.20
2018-12-30T16:06:19.218Z,4.90
2018-12-30T16:08:58.968Z,5.00
2018-12-30T16:11:41.551Z,4.80
2018-12-30T16:14:25.236Z,4.90
2018-12-30T16:17:05.938Z,4.80
2018-12-30T16:19:45.926Z,4.80
2018-12-30T16:22:28.472Z,4.80
2018-12-30T16:25:08.525Z,4.80
2018-12-30T16:27:48.882Z,4.70
2018-12-30T16:30:29.073Z,4.80
2018-12-30T16:33:09.471Z,4.70
2018-12-30T16:35:49.862Z,4.70
2018-12-30T16:38:30.083Z,4.70
2018-12-30T16:41:10.708Z,4.70
2018-12-30T16:43:52.102Z,4.90
2018-12-30T16:46:32.879Z,4.80
2018-12-30T16:49:12.747Z,4.90
2018-12-30T16:51:53.107Z,4.70
2018-12-30T16:54:33.830Z,4.70
2018-12-30T16:57:14.037Z,4.70
2018-12-30T16:59:54.311Z,4.60
2018-12-30T17:02:34.861Z,4.60
2018-12-30T17:05:14.771Z,4.40
2018-12-30T17:07:54.936Z,4.50
2018-12-30T17:10:35.104Z,4.40
2018-12-30T17:13:15.440Z,4.70
2018-12-30T17:15:55.667Z,4.40
2018-12-30T17:18:37.199Z,4.50
2018-12-30T17:21:17.293Z,4.30
2018-12-30T17:23:58.693Z,4.60
2018-12-30T17:26:38.527Z,4.30
2018-12-30T17:29:18.509Z,4.10
2018-12-30T17:31:58.801Z,4.00
2018-12-30T17:34:38.993Z,3.90
2018-12-30T17:37:19.252Z,3.90
2018-12-30T17:39:59.506Z,3.90
2018-12-30T17:42:39.590Z,3.70
2018-12-30T17:45:23.053Z,3.80
2018-12-30T17:48:04.437Z,3.80
2018-12-30T17:50:44.449Z,3.90
2018-12-30T17:53:26.214Z,3.80
2018-12-30T17:56:13.413Z,3.70
2018-12-30T17:58:53.664Z,3.70
2018-12-30T18:01:33.819Z,3.70
2018-12-30T18:06:55.304Z,3.60
2018-12-30T18:09:36.242Z,3.60
2018-12-30T18:12:16.645Z,3.60
2018-12-30T18:14:57.232Z,3.60
2018-12-30T18:17:41.285Z,3.60
2018-12-30T18:20:20.039Z,3.60
2018-12-30T18:23:00.167Z,3.60
2018-12-30T18:25:40.502Z,3.60
2018-12-30T18:28:27.677Z,3.60
2018-12-30T18:31:08.472Z,3.60
2018-12-30T18:33:48.907Z,3.40
2018-12-30T18:36:28.896Z,3.60
2018-12-30T18:39:10.535Z,3.70
2018-12-30T18:41:51.388Z,3.70
2018-12-30T18:44:31.471Z,3.60
2018-12-30T18:46:59.030Z,3.80
2018-12-30T18:49:47.066Z,3.70
2018-12-30T18:52:28.025Z,3.70
2018-12-30T18:55:08.451Z,4.00
2018-12-30T18:57:49.103Z,3.70
2018-12-30T19:00:29.613Z,3.80
2018-12-30T19:03:09.929Z,3.80
2018-12-30T19:05:50.143Z,3.60
2018-12-30T19:08:30.785Z,3.60
2018-12-30T19:11:11.134Z,3.70
2018-12-30T19:13:51.564Z,3.80
2018-12-30T19:16:31.377Z,3.70
2018-12-30T19:19:11.692Z,3.70
2018-12-30T19:21:52.578Z,3.80
2018-12-30T19:27:42.095Z,3.80
2018-12-30T19:30:26.553Z,3.80
2018-12-30T19:33:06.706Z,3.80
2018-12-30T19:35:46.986Z,3.80
2018-12-30T19:38:27.351Z,3.70
2018-12-30T19:41:07.380Z,3.70
2018-12-30T19:43:47.957Z,3.60
2018-12-30T19:49:50.831Z,3.60
2018-12-30T19:52:33.019Z,3.40
2018-12-30T19:55:14.107Z,3.40
2018-12-30T19:58:01.579Z,3.50
2018-12-30T20:00:41.668Z,3.40
2018-12-30T20:03:22.294Z,3.40
2018-12-30T20:06:02.650Z,3.40
2018-12-30T20:08:43.019Z,3.30
2018-12-30T20:11:23.623Z,3.40
2018-12-30T20:14:03.504Z,3.30
2018-12-30T20:16:43.785Z,3.30
2018-12-30T20:19:24.011Z,3.30
2018-12-30T20:22:04.570Z,3.50
2018-12-30T20:24:44.604Z,3.50
2018-12-30T20:27:25.295Z,3.40
2018-12-30T20:30:12.620Z,3.50
2018-12-30T20:32:52.798Z,3.50
2018-12-30T20:35:33.662Z,3.30
2018-12-30T20:38:13.690Z,3.50
2018-12-30T20:40:41.082Z,3.60
2018-12-30T20:43:28.053Z,3.60
2018-12-30T20:46:10.298Z,3.70
2018-12-30T20:48:50.324Z,3.70
2018-12-30T20:51:30.848Z,3.70
2018-12-30T20:54:11.374Z,3.70
2018-12-30T20:56:51.275Z,3.80
2018-12-30T20:59:31.604Z,3.80
2018-12-30T21:02:12.010Z,3.80
2018-12-30T21:04:52.449Z,3.80
2018-12-30T21:07:33.239Z,3.80
2018-12-30T21:10:13.670Z,3.80
2018-12-30T21:12:53.809Z,3.90
2018-12-30T21:15:34.140Z,3.70
2018-12-30T21:18:13.961Z,3.80
2018-12-30T21:20:54.601Z,3.90
2018-12-30T21:23:34.583Z,4.10
2018-12-30T21:26:14.624Z,3.90
2018-12-30T21:28:55.052Z,3.80
2018-12-30T21:31:35.402Z,4.10
2018-12-30T21:34:22.542Z,4.10
2018-12-30T21:37:03.156Z,4.10
2018-12-30T21:39:43.182Z,4.10
2018-12-30T21:42:23.445Z,4.20
2018-12-30T21:45:04.180Z,4.30
2018-12-30T21:47:45.933Z,4.20
2018-12-30T21:50:26.533Z,4.30
2018-12-30T21:53:06.998Z,4.30
2018-12-30T21:55:47.077Z,4.10
2018-12-30T21:58:27.634Z,4.30
2018-12-30T22:01:08.117Z,4.10
2018-12-30T22:03:48.259Z,4.10
2018-12-30T22:06:35.442Z,4.40
2018-12-30T22:09:16.055Z,4.40
2018-12-30T22:11:56.584Z,4.40
2018-12-30T22:14:36.583Z,4.40
2018-12-30T22:17:16.886Z,4.40
2018-12-30T22:19:57.189Z,4.40
2018-12-30T22:22:37.481Z,4.40
2018-12-30T22:25:17.746Z,4.40
2018-12-30T22:27:58.138Z,4.40
2018-12-30T22:30:38.344Z,4.40
2018-12-30T22:33:18.515Z,4.60
2018-12-30T22:35:58.612Z,4.50
2018-12-30T22:38:46.032Z,4.60
2018-12-30T22:41:26.277Z,4.60
2018-12-30T22:44:06.333Z,4.40
2018-12-30T22:46:46.511Z,4.60
2018-12-30T22:49:26.735Z,4.50
2018-12-30T22:52:07.066Z,4.60
2018-12-30T22:54:47.333Z,4.60
2018-12-30T22:57:27.958Z,4.70
2018-12-30T23:00:35.138Z,4.60
2018-12-30T23:03:15.748Z,4.70
2018-12-30T23:05:55.675Z,4.50
2018-12-30T23:08:36.323Z,4.70
2018-12-30T23:11:18.156Z,4.70
2018-12-30T23:13:58.627Z,4.80
2018-12-30T23:16:38.710Z,4.50
2018-12-30T23:19:19.185Z,4.80
2018-12-30T23:21:59.340Z,4.60
2018-12-30T23:24:39.707Z,4.70
2018-12-30T23:27:19.799Z,4.70
2018-12-30T23:30:00.202Z,4.70
2018-12-30T23:32:47.292Z,4.80
2018-12-30T23:35:34.810Z,4.70
2018-12-30T23:38:21.978Z,4.70
2018-12-30T23:41:02.451Z,4.80
2018-12-30T23:43:42.902Z,4.80
2018-12-30T23:49:04.044Z,4.70
2018-12-30T23:51:44.232Z,4.50
2018-12-30T23:54:27.863Z,4.70
2018-12-30T23:57:07.881Z,4.80
2018-12-30T23:59:48.093Z,4.70
